createdAt,value
2022-12-29T00:01:35.761Z,2.20
2022-12-29T00:04:11.300Z,1.60
2022-12-29T00:06:45.513Z,1.40
2022-12-29T00:09:18.117Z,1.10
2022-12-29T00:11:48.747Z,2.70
2022-12-29T00:14:37.703Z,1.60
2022-12-29T00:17:08.392Z,1.00
2022-12-29T00:19:56.772Z,0.80
2022-12-29T00:22:45.457Z,1.40
2022-12-29T00:25:34.479Z,1.50
2022-12-29T00:28:22.712Z,0.90
2022-12-29T00:31:11.313Z,3.50
2022-12-29T00:34:00.638Z,1.10
2022-12-29T00:36:34.259Z,1.20
2022-12-29T00:39:27.229Z,1.30
2022-12-29T00:42:15.504Z,0.80
2022-12-29T00:44:46.168Z,1.90
2022-12-29T00:47:18.463Z,1.30
2022-12-29T00:49:49.255Z,0.90
2022-12-29T00:52:21.407Z,0.90
2022-12-29T00:54:52.060Z,1.50
2022-12-29T00:57:22.672Z,1.30
2022-12-29T00:59:53.406Z,1.10
2022-12-29T01:02:24.190Z,1.20
2022-12-29T01:04:55.030Z,1.40
2022-12-29T01:07:25.600Z,1.70
2022-12-29T01:10:15.971Z,0.50
2022-12-29T01:12:48.423Z,1.50
2022-12-29T01:15:19.270Z,1.40
2022-12-29T01:17:49.922Z,3.10
2022-12-29T01:20:20.899Z,1.00
2022-12-29T01:22:51.544Z,1.10
2022-12-29T01:25:24.219Z,0.90
2022-12-29T01:27:54.820Z,1.20
2022-12-29T01:30:25.447Z,1.30
2022-12-29T01:32:57.434Z,0.90
2022-12-29T01:35:28.256Z,0.80
2022-12-29T01:37:59.019Z,0.90
2022-12-29T01:40:30.348Z,1.50
2022-12-29T01:43:01.246Z,1.50
2022-12-29T01:45:31.896Z,2.90
2022-12-29T01:48:07.043Z,2.00
2022-12-29T01:50:41.390Z,1.60
2022-12-29T01:53:15.791Z,1.20
2022-12-29T01:55:52.251Z,1.40
2022-12-29T01:58:26.584Z,1.40
2022-12-29T02:00:57.755Z,1.60
2022-12-29T02:03:29.621Z,2.10
2022-12-29T02:06:04.802Z,0.80
2022-12-29T02:08:35.468Z,2.20
2022-12-29T02:11:07.507Z,1.40
2022-12-29T02:13:38.285Z,1.20
2022-12-29T02:16:20.950Z,0.90
2022-12-29T02:19:00.267Z,1.70
2022-12-29T02:21:54.400Z,1.60
2022-12-29T02:24:55.487Z,1.70
2022-12-29T02:27:57.364Z,1.60
2022-12-29T02:31:02.304Z,2.10
2022-12-29T02:33:44.671Z,1.70
2022-12-29T02:36:30.808Z,2.10
2022-12-29T02:39:09.287Z,1.50
2022-12-29T02:41:52.039Z,1.30
2022-12-29T02:44:30.284Z,2.20
2022-12-29T02:47:10.495Z,1.00
2022-12-29T02:49:48.515Z,2.50
2022-12-29T02:52:24.190Z,1.20
2022-12-29T02:54:57.016Z,2.20
2022-12-29T03:00:11.202Z,0.60
2022-12-29T03:03:00.372Z,0.70
2022-12-29T03:05:51.271Z,2.10
2022-12-29T03:11:02.945Z,0.90
2022-12-29T03:13:59.259Z,1.60
2022-12-29T03:16:37.978Z,1.20
2022-12-29T03:22:03.102Z,1.50
2022-12-29T03:24:40.645Z,0.90
2022-12-29T03:27:16.426Z,1.50
2022-12-29T03:29:55.338Z,2.00
2022-12-29T03:32:30.668Z,1.30
2022-12-29T03:35:02.937Z,1.40
2022-12-29T03:37:38.578Z,2.80
2022-12-29T03:40:11.336Z,1.00
2022-12-29T03:45:13.879Z,1.20
2022-12-29T03:47:44.960Z,2.00
2022-12-29T03:50:16.757Z,3.20
2022-12-29T03:52:49.338Z,1.40
2022-12-29T03:55:20.145Z,1.90
2022-12-29T03:57:51.644Z,1.10
2022-12-29T04:00:29.268Z,1.50
2022-12-29T04:03:00.428Z,1.80
2022-12-29T04:05:32.177Z,1.10
2022-12-29T04:08:03.746Z,1.70
2022-12-29T04:10:34.558Z,2.80
2022-12-29T04:13:08.094Z,1.90
2022-12-29T04:15:38.972Z,2.00
2022-12-29T04:18:09.833Z,2.70
2022-12-29T04:20:58.565Z,0.90
2022-12-29T04:23:29.743Z,3.30
2022-12-29T04:26:01.187Z,1.20
2022-12-29T04:28:33.136Z,1.40
2022-12-29T04:31:29.720Z,1.10
2022-12-29T04:34:01.127Z,2.20
2022-12-29T04:36:32.044Z,0.70
2022-12-29T04:39:06.218Z,0.90
2022-12-29T04:41:37.566Z,1.50
2022-12-29T04:44:10.079Z,1.70
2022-12-29T04:47:10.233Z,1.30
2022-12-29T04:49:57.202Z,1.30
2022-12-29T04:52:33.676Z,2.40
2022-12-29T04:55:07.974Z,1.60
2022-12-29T04:57:38.786Z,2.10
2022-12-29T05:00:12.237Z,1.30
2022-12-29T05:02:43.987Z,0.90
2022-12-29T05:05:15.018Z,1.00
2022-12-29T05:07:48.181Z,0.90
2022-12-29T05:10:19.163Z,1.60
2022-12-29T05:12:50.410Z,2.50
2022-12-29T05:15:22.023Z,1.50
2022-12-29T05:17:53.036Z,1.30
2022-12-29T05:20:23.709Z,1.30
2022-12-29T05:22:54.855Z,1.40
2022-12-29T05:25:25.562Z,1.30
2022-12-29T05:30:53.402Z,1.20
2022-12-29T05:33:24.187Z,2.70
2022-12-29T05:35:56.131Z,1.20
2022-12-29T05:38:27.912Z,1.90
2022-12-29T05:40:58.853Z,2.00
2022-12-29T05:46:45.027Z,1.80
2022-12-29T05:49:44.789Z,2.20
2022-12-29T05:52:52.196Z,1.10
2022-12-29T05:55:23.370Z,0.70
2022-12-29T05:57:56.668Z,1.70
2022-12-29T06:00:27.843Z,1.20
2022-12-29T06:02:58.635Z,2.30
2022-12-29T06:05:30.532Z,3.00
2022-12-29T06:08:02.114Z,1.90
2022-12-29T06:10:34.050Z,1.40
2022-12-29T06:13:08.877Z,0.60
2022-12-29T06:15:41.865Z,0.90
2022-12-29T06:18:19.399Z,2.10
2022-12-29T06:20:51.458Z,1.30
2022-12-29T06:23:23.296Z,1.70
2022-12-29T06:25:54.162Z,1.10
2022-12-29T06:28:24.829Z,1.90
2022-12-29T06:30:57.184Z,1.90
2022-12-29T06:33:28.308Z,1.00
2022-12-29T06:35:59.163Z,1.70
2022-12-29T06:38:29.802Z,1.10
2022-12-29T06:41:00.713Z,1.40
2022-12-29T06:43:50.257Z,1.20
2022-12-29T06:46:28.588Z,1.50
2022-12-29T06:48:59.443Z,1.70
2022-12-29T06:51:30.092Z,1.30
2022-12-29T06:54:00.839Z,1.10
2022-12-29T06:56:31.400Z,1.10
2022-12-29T06:59:02.215Z,1.40
2022-12-29T07:01:33.229Z,1.60
2022-12-29T07:04:03.957Z,1.40
2022-12-29T07:06:34.657Z,1.00
2022-12-29T07:09:05.462Z,1.10
2022-12-29T07:11:36.805Z,1.00
2022-12-29T07:14:07.671Z,0.70
2022-12-29T07:16:38.500Z,1.70
2022-12-29T07:19:09.646Z,2.30
2022-12-29T07:21:47.861Z,3.10
2022-12-29T07:24:18.697Z,1.30
2022-12-29T07:26:49.443Z,3.10
2022-12-29T07:29:20.323Z,2.20
2022-12-29T07:31:51.103Z,4.60
2022-12-29T07:34:21.861Z,1.60
2022-12-29T07:36:52.597Z,12.60
2022-12-29T07:39:23.285Z,4.00
2022-12-29T07:41:55.334Z,2.40
2022-12-29T07:44:30.165Z,1.90
2022-12-29T07:47:16.647Z,2.00
2022-12-29T07:49:47.583Z,2.50
2022-12-29T07:52:18.231Z,1.40
2022-12-29T07:54:48.861Z,1.00
2022-12-29T07:57:19.556Z,1.60
2022-12-29T07:59:50.251Z,1.10
2022-12-29T08:02:21.092Z,3.20
2022-12-29T08:04:51.904Z,2.10
2022-12-29T08:07:23.009Z,6.70
2022-12-29T08:09:53.653Z,2.90
2022-12-29T08:12:24.309Z,2.30
2022-12-29T08:14:58.081Z,0.90
2022-12-29T08:17:29.325Z,1.70
2022-12-29T08:19:59.975Z,2.00
2022-12-29T08:22:30.706Z,1.40
2022-12-29T08:25:01.509Z,2.50
2022-12-29T08:27:32.193Z,1.40
2022-12-29T08:30:03.086Z,0.90
2022-12-29T08:32:34.698Z,1.00
2022-12-29T08:35:06.121Z,1.00
2022-12-29T08:37:37.399Z,0.80
2022-12-29T08:40:10.895Z,2.50
2022-12-29T08:42:41.678Z,1.70
2022-12-29T08:45:13.222Z,1.10
2022-12-29T08:47:44.369Z,2.20
2022-12-29T08:50:15.151Z,1.40
2022-12-29T08:52:45.938Z,1.80
2022-12-29T08:55:16.714Z,1.90
2022-12-29T08:57:47.631Z,1.50
2022-12-29T09:00:22.937Z,0.80
2022-12-29T09:02:54.724Z,1.90
2022-12-29T09:05:26.234Z,1.30
2022-12-29T09:07:56.884Z,2.70
2022-12-29T09:10:27.606Z,2.60
2022-12-29T09:12:58.274Z,2.00
2022-12-29T09:15:28.950Z,2.40
2022-12-29T09:17:59.667Z,2.70
2022-12-29T09:20:30.418Z,1.30
2022-12-29T09:23:01.063Z,2.50
2022-12-29T09:25:32.404Z,2.90
2022-12-29T09:28:08.689Z,0.70
2022-12-29T09:30:39.374Z,1.00
2022-12-29T09:33:10.267Z,1.60
2022-12-29T09:35:43.219Z,2.40
2022-12-29T09:38:16.798Z,1.20
2022-12-29T09:40:52.013Z,1.30
2022-12-29T09:43:34.518Z,1.30
2022-12-29T09:46:16.867Z,2.40
2022-12-29T09:48:55.479Z,1.80
2022-12-29T09:51:28.023Z,1.40
2022-12-29T09:56:30.829Z,1.80
2022-12-29T09:59:06.590Z,3.50
2022-12-29T10:01:45.146Z,2.00
2022-12-29T10:04:17.553Z,4.20
2022-12-29T10:07:28.083Z,1.80
2022-12-29T10:09:58.147Z,1.70
2022-12-29T10:12:40.082Z,0.80
2022-12-29T10:15:20.637Z,1.50
2022-12-29T10:17:57.894Z,1.50
2022-12-29T10:20:35.381Z,7.50
2022-12-29T10:23:29.152Z,0.60
2022-12-29T10:26:01.966Z,0.70
2022-12-29T10:28:41.122Z,1.10
2022-12-29T10:31:18.087Z,1.00
2022-12-29T10:33:52.195Z,1.10
2022-12-29T10:36:31.360Z,0.80
2022-12-29T10:39:15.472Z,0.90
2022-12-29T10:41:51.942Z,2.20
2022-12-29T10:44:24.387Z,2.40
2022-12-29T10:47:01.765Z,1.60
2022-12-29T10:49:36.864Z,1.60
2022-12-29T10:52:08.771Z,2.60
2022-12-29T10:54:46.363Z,1.20
2022-12-29T10:57:26.544Z,2.80
2022-12-29T10:59:57.705Z,1.80
2022-12-29T11:02:47.870Z,0.90
2022-12-29T11:05:28.562Z,4.70
2022-12-29T11:08:04.109Z,1.10
2022-12-29T11:10:41.955Z,1.70
2022-12-29T11:13:18.691Z,1.70
2022-12-29T11:15:51.498Z,2.50
2022-12-29T11:18:25.388Z,2.30
2022-12-29T11:21:00.257Z,1.90
2022-12-29T11:23:35.298Z,1.20
2022-12-29T11:26:31.770Z,1.90
2022-12-29T11:29:23.507Z,0.80
2022-12-29T11:31:56.202Z,1.40
2022-12-29T11:34:31.313Z,1.30
2022-12-29T11:37:07.347Z,2.80
2022-12-29T11:39:43.301Z,1.10
2022-12-29T11:42:19.731Z,1.00
2022-12-29T11:44:52.759Z,1.00
2022-12-29T11:47:31.619Z,1.10
2022-12-29T11:50:06.395Z,1.00
2022-12-29T11:52:40.610Z,0.80
2022-12-29T11:55:23.739Z,1.10
2022-12-29T11:57:57.248Z,1.20
2022-12-29T12:00:31.778Z,0.90
2022-12-29T12:03:05.217Z,1.50
2022-12-29T12:05:43.683Z,2.00
2022-12-29T12:08:21.273Z,1.00
2022-12-29T12:10:58.690Z,1.30
2022-12-29T12:13:35.823Z,2.30
2022-12-29T12:16:11.516Z,1.40
2022-12-29T12:18:49.187Z,0.70
2022-12-29T12:21:27.838Z,1.90
2022-12-29T12:24:10.793Z,1.40
2022-12-29T12:26:54.527Z,1.40
2022-12-29T12:29:34.468Z,1.20
2022-12-29T12:32:11.377Z,2.40
2022-12-29T12:34:46.509Z,1.00
2022-12-29T12:37:50.342Z,1.30
2022-12-29T12:40:51.062Z,1.20
2022-12-29T12:43:39.273Z,2.70
2022-12-29T12:46:27.568Z,1.10
2022-12-29T12:49:23.940Z,1.90
2022-12-29T12:52:05.105Z,1.90
2022-12-29T12:54:58.316Z,1.00
2022-12-29T12:57:39.080Z,1.40
2022-12-29T13:00:14.859Z,1.00
2022-12-29T13:03:01.644Z,0.80
2022-12-29T13:05:48.998Z,0.80
2022-12-29T13:08:58.191Z,0.90
2022-12-29T13:11:40.180Z,2.70
2022-12-29T13:14:21.085Z,2.80
2022-12-29T13:17:01.164Z,1.10
2022-12-29T13:19:36.932Z,1.20
2022-12-29T13:22:16.885Z,1.20
2022-12-29T13:25:07.248Z,7.20
2022-12-29T13:27:45.256Z,1.20
2022-12-29T13:30:20.007Z,0.70
2022-12-29T13:33:00.788Z,2.30
2022-12-29T13:35:49.140Z,1.20
2022-12-29T13:38:24.813Z,0.90
2022-12-29T13:40:59.204Z,0.90
2022-12-29T13:43:33.902Z,1.00
2022-12-29T13:46:10.188Z,4.30
2022-12-29T13:48:47.253Z,2.10
2022-12-29T13:51:27.255Z,2.00
2022-12-29T13:54:15.617Z,3.40
2022-12-29T13:56:57.257Z,1.00
2022-12-29T13:59:41.759Z,1.20
2022-12-29T14:05:03.189Z,0.60
2022-12-29T14:07:41.197Z,1.40
2022-12-29T14:10:34.640Z,1.50
2022-12-29T14:13:08.631Z,2.40
2022-12-29T14:15:43.393Z,0.90
2022-12-29T14:18:21.370Z,1.30
2022-12-29T14:20:57.902Z,1.10
2022-12-29T14:23:41.159Z,1.90
2022-12-29T14:26:19.174Z,2.80
2022-12-29T14:28:51.042Z,2.00
2022-12-29T14:31:42.102Z,2.70
2022-12-29T14:34:48.800Z,1.60
2022-12-29T14:37:30.369Z,2.20
2022-12-29T14:40:22.944Z,1.60
2022-12-29T14:42:56.485Z,1.40
2022-12-29T14:45:33.920Z,1.30
2022-12-29T14:48:23.290Z,1.60
2022-12-29T14:50:54.802Z,1.20
2022-12-29T14:53:47.792Z,1.60
2022-12-29T14:56:21.245Z,1.50
2022-12-29T14:58:55.773Z,0.90
2022-12-29T15:01:39.983Z,2.20
2022-12-29T15:04:20.496Z,1.10
2022-12-29T15:06:53.259Z,1.40
2022-12-29T15:09:37.283Z,1.00
2022-12-29T15:12:21.642Z,1.80
2022-12-29T15:14:58.619Z,2.20
2022-12-29T15:17:31.702Z,3.10
2022-12-29T15:20:19.158Z,1.00
2022-12-29T15:22:55.069Z,1.70
2022-12-29T15:25:27.696Z,1.40
2022-12-29T15:28:02.949Z,2.60
2022-12-29T15:30:34.301Z,1.80
2022-12-29T15:33:18.118Z,3.60
2022-12-29T15:35:53.879Z,6.30
2022-12-29T15:38:33.295Z,2.10
2022-12-29T15:41:13.144Z,0.80
2022-12-29T15:43:55.500Z,2.30
2022-12-29T15:46:26.410Z,1.30
2022-12-29T15:48:57.842Z,1.60
2022-12-29T15:51:33.516Z,3.60
2022-12-29T15:54:04.862Z,1.30
2022-12-29T15:56:36.340Z,2.30
2022-12-29T15:59:07.067Z,2.70
2022-12-29T16:01:39.427Z,1.30
2022-12-29T16:04:12.116Z,1.40
2022-12-29T16:06:56.587Z,1.00
2022-12-29T16:09:35.937Z,1.90
2022-12-29T16:12:10.229Z,1.30
2022-12-29T16:14:46.375Z,1.40
2022-12-29T16:17:22.333Z,1.30
2022-12-29T16:19:56.264Z,2.20
2022-12-29T16:22:33.211Z,1.10
2022-12-29T16:25:06.576Z,0.80
2022-12-29T16:27:41.890Z,3.60
2022-12-29T16:30:24.249Z,2.70
2022-12-29T16:33:00.712Z,2.60
2022-12-29T16:35:41.065Z,2.30
2022-12-29T16:38:17.937Z,1.70
2022-12-29T16:40:55.905Z,2.60
2022-12-29T16:43:29.264Z,1.10
2022-12-29T16:46:21.129Z,1.00
2022-12-29T16:48:54.637Z,2.40
2022-12-29T16:51:33.063Z,3.60
2022-12-29T16:54:19.861Z,2.30
2022-12-29T16:56:51.711Z,1.20
2022-12-29T16:59:34.393Z,4.20
2022-12-29T17:02:10.665Z,1.40
2022-12-29T17:04:41.669Z,2.20
2022-12-29T17:07:20.059Z,2.20
2022-12-29T17:09:51.287Z,2.90
2022-12-29T17:12:25.241Z,6.20
2022-12-29T17:14:59.840Z,2.80
2022-12-29T17:17:35.531Z,2.90
2022-12-29T17:20:15.665Z,1.80
2022-12-29T17:22:47.056Z,2.60
2022-12-29T17:25:19.959Z,2.30
2022-12-29T17:27:54.899Z,1.70
2022-12-29T17:30:33.117Z,2.90
2022-12-29T17:33:08.946Z,1.30
2022-12-29T17:35:39.734Z,1.00
2022-12-29T17:38:20.941Z,1.00
2022-12-29T17:40:51.885Z,3.50
2022-12-29T17:43:23.023Z,1.10
2022-12-29T17:45:57.500Z,1.40
2022-12-29T17:48:28.776Z,1.80
2022-12-29T17:51:00.297Z,4.20
2022-12-29T17:53:32.401Z,3.50
2022-12-29T17:56:03.344Z,1.40
2022-12-29T17:58:35.684Z,2.40
2022-12-29T18:01:08.013Z,1.80
2022-12-29T18:03:41.484Z,0.70
2022-12-29T18:06:14.553Z,1.40
2022-12-29T18:08:45.427Z,1.80
2022-12-29T18:11:25.100Z,1.90
2022-12-29T18:13:56.638Z,2.80
2022-12-29T18:16:27.594Z,1.60
2022-12-29T18:18:58.407Z,1.50
2022-12-29T18:21:29.034Z,2.30
2022-12-29T18:23:59.918Z,5.30
2022-12-29T18:26:35.595Z,3.60
2022-12-29T18:29:06.246Z,0.80
2022-12-29T18:31:37.200Z,1.80
2022-12-29T18:34:16.473Z,1.60
2022-12-29T18:36:47.321Z,1.20
2022-12-29T18:39:18.134Z,3.20
2022-12-29T18:41:48.714Z,2.20
2022-12-29T18:44:20.469Z,2.60
2022-12-29T18:46:51.337Z,4.10
2022-12-29T18:49:22.261Z,3.30
2022-12-29T18:51:53.003Z,2.70
2022-12-29T18:54:29.954Z,2.50
2022-12-29T18:57:00.808Z,3.50
2022-12-29T18:59:31.371Z,2.20
2022-12-29T19:02:02.074Z,1.30
2022-12-29T19:04:32.756Z,2.10
2022-12-29T19:07:03.480Z,3.50
2022-12-29T19:09:35.801Z,1.30
2022-12-29T19:12:07.442Z,2.80
2022-12-29T19:14:38.029Z,1.90
2022-12-29T19:17:13.158Z,1.30
2022-12-29T19:19:44.367Z,2.40
2022-12-29T19:22:14.996Z,1.70
2022-12-29T19:24:45.626Z,1.50
2022-12-29T19:27:16.231Z,0.70
2022-12-29T19:29:46.833Z,2.10
2022-12-29T19:32:17.535Z,1.80
2022-12-29T19:34:48.877Z,3.30
2022-12-29T19:37:19.662Z,2.40
2022-12-29T19:39:50.333Z,3.70
2022-12-29T19:42:21.015Z,3.70
2022-12-29T19:44:51.737Z,3.80
2022-12-29T19:47:25.642Z,2.30
2022-12-29T19:49:59.535Z,2.60
2022-12-29T19:52:32.051Z,3.20
2022-12-29T19:55:03.445Z,2.60
2022-12-29T19:57:34.703Z,3.70
2022-12-29T20:00:06.815Z,3.40
2022-12-29T20:02:57.620Z,3.80
2022-12-29T20:05:28.652Z,2.70
2022-12-29T20:07:59.343Z,3.80
2022-12-29T20:10:29.999Z,3.90
2022-12-29T20:13:00.672Z,3.50
2022-12-29T20:15:31.307Z,3.10
2022-12-29T20:18:13.047Z,3.60
2022-12-29T20:20:45.043Z,6.60
2022-12-29T20:23:15.690Z,6.00
2022-12-29T20:25:47.148Z,7.30
2022-12-29T20:28:18.583Z,7.60
2022-12-29T20:30:57.121Z,6.60
2022-12-29T20:33:29.302Z,8.40
2022-12-29T20:36:07.693Z,9.80
2022-12-29T20:38:38.938Z,6.30
2022-12-29T20:41:09.890Z,5.10
2022-12-29T20:43:40.621Z,6.00
2022-12-29T20:46:11.998Z,6.20
2022-12-29T20:48:43.385Z,4.80
2022-12-29T20:51:14.441Z,4.00
2022-12-29T20:53:45.631Z,4.30
2022-12-29T20:56:18.793Z,4.70
2022-12-29T20:59:25.946Z,6.90
2022-12-29T21:01:41.945Z,4.40
2022-12-29T21:04:13.001Z,5.50
2022-12-29T21:06:43.727Z,6.50
2022-12-29T21:09:14.365Z,4.80
2022-12-29T21:11:45.065Z,6.80
2022-12-29T21:14:15.728Z,5.40
2022-12-29T21:16:47.437Z,4.70
2022-12-29T21:19:18.254Z,2.80
2022-12-29T21:21:49.551Z,3.10
2022-12-29T21:24:20.288Z,5.30
2022-12-29T21:26:51.424Z,2.80
2022-12-29T21:29:22.275Z,3.70
2022-12-29T21:31:52.826Z,2.10
2022-12-29T21:34:23.576Z,2.80
2022-12-29T21:36:54.309Z,1.40
2022-12-29T21:39:25.137Z,0.90
2022-12-29T21:42:00.193Z,1.90
2022-12-29T21:44:48.780Z,3.80
2022-12-29T21:47:19.563Z,1.40
2022-12-29T21:49:50.302Z,4.10
2022-12-29T21:52:20.980Z,2.40
2022-12-29T21:55:05.169Z,1.10
2022-12-29T21:57:53.938Z,2.60
2022-12-29T22:00:42.550Z,2.20
2022-12-29T22:03:31.302Z,2.70
2022-12-29T22:06:19.680Z,1.90
2022-12-29T22:09:07.856Z,2.30
2022-12-29T22:11:56.188Z,1.80
2022-12-29T22:14:26.856Z,1.50
2022-12-29T22:16:58.504Z,2.90
2022-12-29T22:19:29.084Z,1.70
2022-12-29T22:21:59.790Z,1.90
2022-12-29T22:24:30.511Z,1.70
2022-12-29T22:27:01.251Z,4.00
2022-12-29T22:29:31.849Z,1.60
2022-12-29T22:32:02.765Z,2.60
2022-12-29T22:34:33.886Z,1.70
2022-12-29T22:37:04.575Z,3.00
2022-12-29T22:39:35.172Z,2.30
2022-12-29T22:42:06.570Z,1.30
2022-12-29T22:44:37.247Z,2.30
2022-12-29T22:47:08.589Z,2.20
2022-12-29T22:49:39.535Z,2.20
2022-12-29T22:52:10.189Z,1.70
2022-12-29T22:54:40.877Z,2.50
2022-12-29T22:57:11.630Z,4.00
2022-12-29T22:59:42.240Z,3.90
2022-12-29T23:02:13.129Z,3.70
2022-12-29T23:05:03.362Z,2.20
2022-12-29T23:07:35.781Z,2.00
2022-12-29T23:10:07.563Z,3.00
2022-12-29T23:12:38.328Z,1.90
2022-12-29T23:15:11.010Z,2.00
2022-12-29T23:17:41.602Z,3.10
2022-12-29T23:20:14.024Z,2.10
2022-12-29T23:22:44.660Z,2.60
2022-12-29T23:25:15.518Z,2.60
2022-12-29T23:27:46.131Z,5.90
2022-12-29T23:30:16.905Z,3.40
2022-12-29T23:32:47.619Z,1.80
2022-12-29T23:35:18.285Z,1.90
2022-12-29T23:37:48.930Z,1.90
2022-12-29T23:40:19.729Z,12.70
2022-12-29T23:42:50.494Z,14.30
2022-12-29T23:45:21.300Z,22.10
2022-12-29T23:47:51.948Z,14.40
2022-12-29T23:50:23.468Z,7.10
2022-12-29T23:52:54.075Z,5.70
2022-12-29T23:55:25.375Z,4.80
2022-12-29T23:57:56.562Z,7.70
